Latest Weather Observations for Brisbane Airport

IDQ60901

Issued at 8:05 pm EST Saturday 22 November 2014 (issued every 10 minutes, with the page automatically refreshed every 10 minutes)

About weather observations | Map of Brisbane area stations | Latest observations for Brisbane area | Other Formats
Station Details ID: 040842 Name: BRISBANE AERO Lat: -27.39 Lon: 153.13 Height: 4.51 m
Data from the previous 72 hours. | See also: Recent months at Brisbane Airport
Date/Time
EST
Tmp

°C
App
Tmp
°C
Dew
Point
°C
Rel
Hum
%
Delta-T

°C
Wind Press
QNH
hPa
Press
MSL
hPa
Rain
since
9 am
mm
Dir
 
Spd
km/h
Gust
km/h
Spd
kts
Gust
kts
22/08:00pm 25.2 23.5 21.3 79 2.6 N 32 37 17 20 1014.2 - 0.0
22/07:30pm 25.5 23.6 21.4 78 2.7 N 33 41 18 22 1013.8 - 0.0
22/07:00pm 25.3 23.4 21.4 79 2.6 N 33 44 18 24 1013.4 - 0.0
22/06:30pm 25.4 23.8 21.5 79 2.6 N 32 43 17 23 1012.8 - 0.0
22/06:00pm 25.7 23.9 21.5 77 2.8 N 33 46 18 25 1012.4 1012.4 0.0
22/05:30pm 26.0 23.1 21.6 76 2.9 N 39 46 21 25 1012.2 - 0.0
22/05:00pm 26.2 24.8 21.9 77 2.9 N 32 41 17 22 1012.0 - 0.0
22/04:30pm 26.5 24.1 21.9 76 3.1 N 37 48 20 26 1011.8 - 0.0
22/04:00pm 27.3 26.1 22.3 74 3.4 N 32 41 17 22 1011.6 - 0.0
22/03:30pm 27.8 25.9 22.0 70 3.9 N 35 48 19 26 1011.6 - 0.0
22/03:00pm 27.8 25.7 22.3 72 3.7 NNE 37 50 20 27 1011.7 1011.7 0.0
22/02:30pm 28.0 25.4 22.2 70 3.9 NNE 39 52 21 28 1011.7 - 0.0
22/02:00pm 28.1 25.3 22.5 71 3.8 NNE 41 50 22 27 1012.1 - 0.0
22/01:30pm 28.9 26.7 22.9 70 4.1 NNE 39 54 21 29 1012.4 - 0.0
22/01:00pm 28.0 25.7 22.7 73 3.6 NNE 39 52 21 28 1012.5 - 0.0
22/12:30pm 28.8 26.7 23.1 71 3.9 NNE 39 48 21 26 1012.9 - 0.0
22/12:00pm 28.0 26.2 23.0 74 3.4 NNE 37 50 20 27 1013.3 1013.3 0.0
22/11:30am 28.2 26.9 23.2 74 3.4 NNE 35 46 19 25 1013.7 - 0.0
22/11:00am 28.1 26.8 23.1 74 3.4 N 35 43 19 23 1014.0 - 0.0
22/10:30am 28.4 27.5 23.1 73 3.6 N 33 44 18 24 1014.4 - 0.0
22/10:00am 27.9 26.8 22.9 74 3.4 NNE 33 39 18 21 1014.7 - 0.0
22/09:30am 29.0 28.1 21.4 63 5.1 N 28 33 15 18 1014.9 - 0.0
22/09:00am 28.6 29.7 21.9 67 4.5 N 19 26 10 14 1014.9 1014.9 0.0
22/08:30am 27.4 27.3 21.4 70 4.0 N 24 30 13 16 1014.9 - 0.0
22/08:00am 26.5 26.4 21.4 73 3.4 N 24 26 13 14 1015.1 - 0.0
22/07:30am 26.5 27.3 21.7 75 3.2 N 20 26 11 14 1015.1 - 0.0
22/07:00am 25.9 26.6 21.5 76 2.9 N 20 26 11 14 1015.1 - 0.0
22/06:30am 25.8 25.4 21.6 77 2.8 N 26 32 14 17 1014.5 - 0.0
22/06:00am 25.1 25.2 21.2 79 2.6 N 22 28 12 15 1014.2 1014.2 0.0
22/05:30am 24.5 24.1 21.6 84 1.9 N 26 33 14 18 1014.1 - 0.0
22/05:00am 24.4 23.3 21.7 85 1.8 N 30 37 16 20 1013.5 - 0.0
22/04:30am 24.3 23.0 21.3 83 2.0 N 30 37 16 20 1013.1 - 0.0
22/04:00am 24.2 22.6 21.5 85 1.8 N 32 37 17 20 1012.7 - 0.0
22/03:30am 24.4 22.6 21.2 82 2.1 N 32 39 17 21 1012.3 - 0.0
22/03:00am 24.4 24.2 21.2 82 2.1 N 24 32 13 17 1012.4 1012.4 0.0
22/02:30am 24.6 22.9 21.3 82 2.2 N 32 37 17 20 1012.0 - 0.0
22/02:00am 24.7 22.4 21.2 81 2.3 N 35 46 19 25 1011.3 - 0.0
22/01:30am 24.8 22.0 21.0 79 2.5 N 37 44 20 24 1011.5 - 0.0
22/01:00am 24.9 23.0 20.9 78 2.6 N 32 43 17 23 1011.9 - 0.0
22/12:30am 25.1 23.5 21.5 80 2.4 N 32 41 17 22 1012.5 - 0.0
22/12:00am 24.9 22.3 22.1 84 1.9 N 39 44 21 24 1012.1 1012.1 0.0
 
Date/Time
EST
Tmp

°C
App
Tmp
°C
Dew
Point
°C
Rel
Hum
%
Delta-T

°C
Wind Press
QNH
hPa
Press
MSL
hPa
Rain
since
9 am
mm
Dir
 
Spd
km/h
Gust
km/h
Spd
kts
Gust
kts
21/11:30pm 25.1 23.7 22.3 84 1.9 N 33 41 18 22 1012.4 - 0.0
21/11:00pm 25.2 23.9 22.5 85 1.8 N 33 41 18 22 1013.1 - 0.0
21/10:30pm 25.1 24.6 22.9 87 1.5 N 30 37 16 20 1013.5 - 0.0
21/10:00pm 25.2 24.3 22.8 86 1.6 N 32 41 17 22 1013.4 - 0.0
21/09:30pm 25.2 24.3 22.8 86 1.6 N 32 41 17 22 1013.4 - 0.0
21/09:00pm 25.2 24.0 22.7 86 1.7 N 33 44 18 24 1013.5 1013.5 0.0
21/08:30pm 25.2 23.3 22.8 86 1.6 N 37 48 20 26 1012.4 - 0.0
21/08:00pm 25.3 23.8 22.8 86 1.7 N 35 46 19 25 1012.5 - 0.0
21/07:30pm 25.3 23.6 22.5 84 1.9 N 35 44 19 24 1012.4 - 0.0
21/07:00pm 25.4 23.3 22.4 83 2.0 N 37 48 20 26 1012.1 - 0.0
21/06:30pm 25.3 23.7 22.6 85 1.8 N 35 46 19 25 1011.9 - 0.0
21/06:00pm 25.5 23.5 22.5 83 2.0 N 37 50 20 27 1011.4 1011.4 0.0
21/05:30pm 25.9 23.2 22.6 82 2.2 N 41 50 22 27 1011.1 - 0.0
21/05:00pm 26.4 23.9 22.4 78 2.7 N 39 50 21 27 1011.0 - 0.0
21/04:30pm 26.7 24.1 22.1 76 3.1 N 39 54 21 29 1010.6 - 0.0
21/04:00pm 27.2 24.3 22.3 74 3.3 N 41 50 22 27 1010.9 - 0.0
21/03:30pm 27.7 24.9 22.5 73 3.5 N 41 50 22 27 1010.9 - 0.0
21/03:00pm 27.5 24.3 22.5 74 3.4 NNE 43 56 23 30 1010.9 1010.9 0.0
21/02:30pm 27.6 24.8 22.4 73 3.5 N 41 56 22 30 1011.2 - 0.0
21/02:00pm 27.9 25.0 22.3 71 3.8 N 41 50 22 27 1011.6 - 0.0
21/01:30pm 27.7 24.9 22.5 73 3.5 NNE 41 50 22 27 1012.0 - 0.0
21/01:00pm 28.3 25.8 22.4 70 4.0 NNE 39 50 21 27 1012.4 - 0.0
21/12:30pm 28.0 26.3 22.4 71 3.8 NNE 35 48 19 26 1013.1 - 0.0
21/12:00pm 28.0 26.0 22.5 72 3.7 NNE 37 48 20 26 1013.5 1013.5 0.0
21/11:30am 28.3 26.1 22.2 69 4.1 N 37 46 20 25 1014.0 - 0.0
21/11:00am 27.9 26.3 22.6 73 3.6 N 35 44 19 24 1014.5 - 0.0
21/10:30am 27.7 26.0 22.4 73 3.6 N 35 43 19 23 1014.8 - 0.0
21/10:00am 28.1 26.6 22.0 69 4.1 NNE 33 41 18 22 1015.1 - 0.0
21/09:30am 28.0 27.8 22.7 73 3.6 N 28 35 15 19 1015.5 - 0.0
21/09:00am 27.4 26.3 21.1 68 4.2 N 28 32 15 17 1015.7 1015.7 0.0
21/08:30am 27.3 27.0 21.1 69 4.1 N 24 28 13 15 1015.7 - 0.0
21/08:00am 26.5 25.6 20.7 70 3.8 N 26 33 14 18 1015.9 - 0.0
21/07:30am 25.4 24.4 21.2 77 2.8 N 28 33 15 18 1016.2 - 0.0
21/07:00am 25.8 25.3 22.1 80 2.5 N 28 33 15 18 1016.0 - 0.0
21/06:30am 24.6 23.8 21.7 84 1.9 N 28 33 15 18 1015.8 - 0.0
21/06:00am 24.3 24.3 21.7 85 1.7 N 24 32 13 17 1015.6 1015.6 0.0
21/05:30am 23.6 24.3 21.5 88 1.4 N 20 26 11 14 1015.0 - 0.0
21/05:00am 23.4 24.0 21.4 88 1.3 N 20 28 11 15 1015.0 - 0.0
21/04:30am 23.5 23.4 21.4 88 1.4 N 24 30 13 16 1014.9 - 0.0
21/04:00am 23.6 24.1 21.2 86 1.6 N 20 26 11 14 1014.8 - 0.0
21/03:30am 23.4 24.1 21.6 90 1.2 N 20 30 11 16 1014.6 - 0.0
21/03:00am 23.6 24.3 21.6 88 1.3 NNW 20 28 11 15 1014.6 1014.6 0.0
21/02:30am 24.2 23.7 21.5 85 1.8 N 26 32 14 17 1014.7 - 0.0
21/02:00am 24.0 23.0 21.9 88 1.4 N 30 37 16 20 1014.6 - 0.0
21/01:30am 24.2 23.2 21.9 87 1.5 N 30 37 16 20 1014.6 - 0.0
21/01:00am 24.3 23.5 21.7 85 1.7 N 28 35 15 19 1014.8 - 0.0
21/12:30am 24.3 23.2 21.7 85 1.7 N 30 37 16 20 1015.1 - 0.0
21/12:00am 24.3 23.2 21.7 85 1.7 N 30 35 16 19 1015.6 1015.6 0.0
 
Date/Time
EST
Tmp

°C
App
Tmp
°C
Dew
Point
°C
Rel
Hum
%
Delta-T

°C
Wind Press
QNH
hPa
Press
MSL
hPa
Rain
since
9 am
mm
Dir
 
Spd
km/h
Gust
km/h
Spd
kts
Gust
kts
20/11:30pm 24.6 24.6 21.6 83 2.0 N 24 30 13 16 1016.1 - 0.0
20/11:00pm 24.5 23.5 21.3 82 2.1 N 28 37 15 20 1016.3 - 0.0
20/10:30pm 24.5 23.6 21.5 83 2.0 N 28 35 15 19 1016.7 - 0.0
20/10:00pm 24.5 23.3 20.8 80 2.4 N 28 33 15 18 1016.7 - 0.0
20/09:30pm 24.7 23.2 21.7 83 2.0 N 32 37 17 20 1016.6 - 0.0
20/09:00pm 24.6 23.0 21.6 83 2.0 N 32 39 17 21 1016.4 1016.4 0.0
20/08:30pm 24.5 23.1 21.2 82 2.2 N 30 39 16 21 1016.2 - 0.0
20/08:00pm 24.5 22.6 21.0 81 2.3 N 32 37 17 20 1016.0 - 0.0
20/07:30pm 24.6 24.1 21.4 82 2.1 N 26 32 14 17 1015.8 - 0.0
20/07:00pm 24.3 23.2 21.7 85 1.7 N 30 37 16 20 1015.4 - 0.0
20/06:30pm 24.4 22.7 21.4 83 2.0 N 32 39 17 21 1015.2 - 0.0
20/06:00pm 24.7 23.0 21.4 82 2.2 N 32 39 17 21 1014.9 1014.9 0.0
20/05:30pm 24.8 23.5 21.3 81 2.3 NNE 30 37 16 20 1014.7 - 0.0
20/05:00pm 25.1 23.4 21.3 79 2.5 NNE 32 39 17 21 1014.2 - 0.0
20/04:30pm 26.0 24.3 21.3 75 3.1 NNE 32 39 17 21 1014.2 - 0.0
20/04:00pm 26.1 23.9 20.8 72 3.5 N 33 39 18 21 1014.3 - 0.0
20/03:30pm 26.5 24.5 21.1 72 3.6 N 33 39 18 21 1014.4 - 0.0
20/03:00pm 27.4 25.9 21.7 71 3.8 N 32 37 17 20 1014.7 1014.7 0.0
20/02:30pm 26.8 25.0 21.2 71 3.7 NNE 32 37 17 20 1014.7 - 0.0
20/02:00pm 28.0 26.9 21.1 66 4.6 NNE 28 32 15 17 1015.2 - 0.0
20/01:30pm 26.5 26.3 20.6 70 3.9 NNE 22 32 12 17 1015.6 - 0.0
20/01:00pm 26.4 26.5 20.4 69 3.9 NE 20 28 11 15 1015.8 - 0.0
20/12:30pm 26.2 25.9 20.4 70 3.8 NE 22 32 12 17 1016.2 - 0.0
20/12:00pm 25.8 26.1 20.8 74 3.3 NE 20 28 11 15 1016.6 1016.6 0.0
20/11:30am 26.6 26.2 20.2 68 4.2 NE 22 28 12 15 1017.2 - 0.0
20/11:00am 25.8 24.9 19.8 69 3.9 NNE 24 30 13 16 1017.8 - 0.0
20/10:30am 25.6 25.4 19.4 68 4.0 NNE 19 26 10 14 1018.1 - 0.0
20/10:00am 25.4 25.6 18.6 66 4.3 NNE 15 19 8 10 1018.5 - 0.0
20/09:30am 25.6 25.2 18.1 63 4.7 NNE 17 20 9 11 1018.6 - 0.0
20/09:00am 25.3 24.7 17.6 62 4.8 NNE 17 24 9 13 1018.3 1018.3 47.6
20/08:30am 25.2 24.9 18.2 65 4.4 NNE 17 26 9 14 1018.5 - 47.6
20/08:00am 24.5 24.9 19.0 71 3.5 NNE 15 22 8 12 1018.1 - 47.6
20/07:30am 24.1 25.7 19.9 77 2.7 NNE 11 15 6 8 1018.3 - 47.6
20/07:00am 23.8 25.1 18.4 72 3.4 N 9 13 5 7 1018.1 - 47.6
20/06:30am 23.2 24.9 19.3 79 2.5 ENE 9 13 5 7 1018.0 - 47.6
20/06:00am 22.1 25.9 20.2 89 1.2 CALM 0 0 0 0 1017.7 1017.7 47.6
20/05:30am 20.6 24.3 20.0 96 0.4 CALM 0 0 0 0 1017.2 - 47.6
20/05:00am 19.5 22.5 18.5 94 0.6 CALM 0 0 0 0 1017.1 - 47.6
20/04:30am 19.2 21.7 18.2 94 0.6 SSE 2 6 1 3 1016.6 - 47.6
20/04:00am 19.5 22.5 18.5 94 0.6 CALM 0 0 0 0 1016.2 - 47.6
20/03:30am 19.9 21.6 18.6 92 0.8 SSE 7 11 4 6 1016.1 - 47.6
20/03:00am 19.6 21.3 18.5 93 0.7 SSW 7 9 4 5 1016.0 1016.0 47.6
20/02:30am 19.5 20.3 18.2 92 0.8 W 11 15 6 8 1015.9 - 47.6
20/02:00am 19.9 21.1 18.3 90 1.0 WSW 9 9 5 5 1015.9 - 47.6
20/01:30am 20.2 21.4 18.3 89 1.2 W 9 13 5 7 1015.9 - 47.6
20/01:00am 20.8 20.9 18.4 86 1.5 WNW 15 19 8 10 1016.2 - 47.6
20/12:30am 21.4 20.3 18.7 84 1.7 NNW 22 30 12 16 1016.4 - 47.6
20/12:00am 21.6 19.0 18.6 83 1.9 NNW 30 37 16 20 1016.6 1016.6 47.6
 
Date/Time
EST
Tmp

°C
App
Tmp
°C
Dew
Point
°C
Rel
Hum
%
Delta-T

°C
Wind Press
QNH
hPa
Press
MSL
hPa
Rain
since
9 am
mm
Dir
 
Spd
km/h
Gust
km/h
Spd
kts
Gust
kts
19/11:30pm 21.6 19.6 18.4 82 2.0 N 26 32 14 17 1016.9 - 47.6
19/11:00pm 21.7 19.8 18.5 82 2.0 N 26 32 14 17 1016.9 - 47.6
19/10:30pm 21.8 20.8 18.8 83 1.9 N 22 32 12 17 1017.6 - 47.6
19/10:00pm 22.0 21.6 19.3 85 1.7 N 20 26 11 14 1018.0 - 47.6
19/09:30pm 22.0 21.3 19.6 86 1.5 NNW 22 30 12 16 1018.1 - 47.6
19/09:00pm 22.4 22.3 19.9 86 1.6 N 20 28 11 15 1018.1 1018.1 47.6
19/08:30pm 22.5 22.5 19.8 85 1.7 N 19 26 10 14 1017.9 - 47.6

Latest Capital City Observations: Canberra | Sydney | Melbourne | Brisbane | Adelaide | Perth | Hobart | Darwin

Other Formats:

Comma delimited format used in spreadsheet applications
http://www.bom.gov.au/fwo/IDQ60901/IDQ60901.94578.axf

JavaScript Object Notation format (JSON) in row-major order
http://www.bom.gov.au/fwo/IDQ60901/IDQ60901.94578.json